sensor_id;sensor_type;location;lat;lon;timestamp;temperature;humidity
8824;DHT22;4448;50.904;4.694;2023-04-03T00:00:22;6.50;99.90
8824;DHT22;4448;50.904;4.694;2023-04-03T00:02:48;6.50;99.90
8824;DHT22;4448;50.904;4.694;2023-04-03T00:05:13;6.50;99.90
8824;DHT22;4448;50.904;4.694;2023-04-03T00:07:39;6.50;99.90
8824;DHT22;4448;50.904;4.694;2023-04-03T00:10:06;6.40;99.90
8824;DHT22;4448;50.904;4.694;2023-04-03T00:12:31;6.40;99.90
8824;DHT22;4448;50.904;4.694;2023-04-03T00:14:57;6.40;99.90
8824;DHT22;4448;50.904;4.694;2023-04-03T00:17:23;6.50;99.90
8824;DHT22;4448;50.904;4.694;2023-04-03T00:19:48;6.40;99.90
8824;DHT22;4448;50.904;4.694;2023-04-03T00:22:14;6.40;99.90
8824;DHT22;4448;50.904;4.694;2023-04-03T00:24:40;6.50;99.90
8824;DHT22;4448;50.904;4.694;2023-04-03T00:27:05;6.40;99.90
8824;DHT22;4448;50.904;4.694;2023-04-03T00:29:31;6.40;99.90
8824;DHT22;4448;50.904;4.694;2023-04-03T00:31:56;6.40;99.90
8824;DHT22;4448;50.904;4.694;2023-04-03T00:34:22;6.40;99.90
8824;DHT22;4448;50.904;4.694;2023-04-03T00:36:48;6.30;99.90
8824;DHT22;4448;50.904;4.694;2023-04-03T00:39:13;6.40;99.90
8824;DHT22;4448;50.904;4.694;2023-04-03T00:41:39;6.30;99.90
8824;DHT22;4448;50.904;4.694;2023-04-03T00:44:21;6.30;99.90
8824;DHT22;4448;50.904;4.694;2023-04-03T00:46:47;6.30;99.90
8824;DHT22;4448;50.904;4.694;2023-04-03T00:49:12;6.20;99.90
8824;DHT22;4448;50.904;4.694;2023-04-03T00:51:38;6.20;99.90
8824;DHT22;4448;50.904;4.694;2023-04-03T00:54:05;6.20;99.90
8824;DHT22;4448;50.904;4.694;2023-04-03T00:56:33;6.20;99.90
8824;DHT22;4448;50.904;4.694;2023-04-03T00:59:23;6.20;99.90
8824;DHT22;4448;50.904;4.694;2023-04-03T01:01:53;6.20;99.90
8824;DHT22;4448;50.904;4.694;2023-04-03T01:04:30;6.20;99.90
8824;DHT22;4448;50.904;4.694;2023-04-03T01:07:00;6.10;99.90
8824;DHT22;4448;50.904;4.694;2023-04-03T01:09:28;6.10;99.90
8824;DHT22;4448;50.904;4.694;2023-04-03T01:11:54;6.10;99.90
8824;DHT22;4448;50.904;4.694;2023-04-03T01:14:20;6.10;99.90
8824;DHT22;4448;50.904;4.694;2023-04-03T01:16:54;6.10;99.90
8824;DHT22;4448;50.904;4.694;2023-04-03T01:19:21;6.10;99.90
8824;DHT22;4448;50.904;4.694;2023-04-03T01:22:19;6.10;99.90
8824;DHT22;4448;50.904;4.694;2023-04-03T01:24:49;6.10;99.90
8824;DHT22;4448;50.904;4.694;2023-04-03T01:27:16;6.10;99.90
8824;DHT22;4448;50.904;4.694;2023-04-03T01:29:43;6.10;99.90
8824;DHT22;4448;50.904;4.694;2023-04-03T01:32:09;6.10;99.90
8824;DHT22;4448;50.904;4.694;2023-04-03T01:34:35;6.10;99.90
8824;DHT22;4448;50.904;4.694;2023-04-03T01:37:00;6.10;99.90
8824;DHT22;4448;50.904;4.694;2023-04-03T01:39:26;6.10;99.90
8824;DHT22;4448;50.904;4.694;2023-04-03T01:41:52;6.10;99.90
8824;DHT22;4448;50.904;4.694;2023-04-03T01:44:18;6.40;99.90
8824;DHT22;4448;50.904;4.694;2023-04-03T01:46:43;6.10;99.90
8824;DHT22;4448;50.904;4.694;2023-04-03T01:49:12;6.10;99.90
8824;DHT22;4448;50.904;4.694;2023-04-03T01:51:38;6.00;99.90
8824;DHT22;4448;50.904;4.694;2023-04-03T01:54:05;6.10;99.90
8824;DHT22;4448;50.904;4.694;2023-04-03T01:56:30;6.00;99.90
8824;DHT22;4448;50.904;4.694;2023-04-03T01:58:56;6.00;99.90
8824;DHT22;4448;50.904;4.694;2023-04-03T02:01:22;6.00;99.90
8824;DHT22;4448;50.904;4.694;2023-04-03T02:03:47;6.00;99.90
8824;DHT22;4448;50.904;4.694;2023-04-03T02:06:13;6.00;99.90
8824;DHT22;4448;50.904;4.694;2023-04-03T02:08:39;6.00;99.90
8824;DHT22;4448;50.904;4.694;2023-04-03T02:11:05;6.00;99.90
8824;DHT22;4448;50.904;4.694;2023-04-03T02:13:31;6.00;99.90
8824;DHT22;4448;50.904;4.694;2023-04-03T02:15:56;5.90;99.90
8824;DHT22;4448;50.904;4.694;2023-04-03T02:18:22;5.90;99.90
8824;DHT22;4448;50.904;4.694;2023-04-03T02:20:49;5.90;99.90
8824;DHT22;4448;50.904;4.694;2023-04-03T02:23:15;5.90;99.90
8824;DHT22;4448;50.904;4.694;2023-04-03T02:25:40;5.90;99.90
8824;DHT22;4448;50.904;4.694;2023-04-03T02:28:07;5.90;99.90
8824;DHT22;4448;50.904;4.694;2023-04-03T02:30:33;5.90;99.90
8824;DHT22;4448;50.904;4.694;2023-04-03T02:33:00;5.80;99.90
8824;DHT22;4448;50.904;4.694;2023-04-03T02:35:25;5.90;99.90
8824;DHT22;4448;50.904;4.694;2023-04-03T02:37:51;5.90;99.90
8824;DHT22;4448;50.904;4.694;2023-04-03T02:40:17;5.90;99.90
8824;DHT22;4448;50.904;4.694;2023-04-03T02:42:42;5.90;99.90
8824;DHT22;4448;50.904;4.694;2023-04-03T02:45:08;5.80;99.90
8824;DHT22;4448;50.904;4.694;2023-04-03T02:47:34;5.80;99.90
8824;DHT22;4448;50.904;4.694;2023-04-03T02:49:59;5.80;99.90
8824;DHT22;4448;50.904;4.694;2023-04-03T02:52:25;5.80;99.90
8824;DHT22;4448;50.904;4.694;2023-04-03T02:54:51;5.80;99.90
8824;DHT22;4448;50.904;4.694;2023-04-03T02:57:16;5.80;99.90
8824;DHT22;4448;50.904;4.694;2023-04-03T02:59:42;5.80;99.90
8824;DHT22;4448;50.904;4.694;2023-04-03T03:02:08;5.80;99.90
8824;DHT22;4448;50.904;4.694;2023-04-03T03:04:34;5.80;99.90
8824;DHT22;4448;50.904;4.694;2023-04-03T03:07:00;5.70;99.90
8824;DHT22;4448;50.904;4.694;2023-04-03T03:09:26;5.70;99.90
8824;DHT22;4448;50.904;4.694;2023-04-03T03:11:52;5.70;99.90
8824;DHT22;4448;50.904;4.694;2023-04-03T03:14:19;5.70;99.90
8824;DHT22;4448;50.904;4.694;2023-04-03T03:16:44;5.70;99.90
8824;DHT22;4448;50.904;4.694;2023-04-03T03:19:10;5.70;99.90
8824;DHT22;4448;50.904;4.694;2023-04-03T03:21:36;5.70;99.90
8824;DHT22;4448;50.904;4.694;2023-04-03T03:24:02;5.70;99.90
8824;DHT22;4448;50.904;4.694;2023-04-03T03:26:28;5.70;99.90
8824;DHT22;4448;50.904;4.694;2023-04-03T03:28:54;5.60;99.90
8824;DHT22;4448;50.904;4.694;2023-04-03T03:31:21;5.70;99.90
8824;DHT22;4448;50.904;4.694;2023-04-03T03:33:47;5.60;99.90
8824;DHT22;4448;50.904;4.694;2023-04-03T03:36:13;5.60;99.90
8824;DHT22;4448;50.904;4.694;2023-04-03T03:38:38;5.60;99.90
8824;DHT22;4448;50.904;4.694;2023-04-03T03:41:04;5.60;99.90
8824;DHT22;4448;50.904;4.694;2023-04-03T03:43:30;5.60;99.90
8824;DHT22;4448;50.904;4.694;2023-04-03T03:45:56;5.60;99.90
8824;DHT22;4448;50.904;4.694;2023-04-03T03:48:22;5.60;99.90
8824;DHT22;4448;50.904;4.694;2023-04-03T03:50:49;5.50;99.90
8824;DHT22;4448;50.904;4.694;2023-04-03T03:53:15;5.60;99.90
8824;DHT22;4448;50.904;4.694;2023-04-03T03:55:41;5.50;99.90
8824;DHT22;4448;50.904;4.694;2023-04-03T03:58:07;5.50;99.90
8824;DHT22;4448;50.904;4.694;2023-04-03T04:00:34;5.50;99.90
8824;DHT22;4448;50.904;4.694;2023-04-03T04:03:00;5.50;99.90
8824;DHT22;4448;50.904;4.694;2023-04-03T04:05:26;5.50;99.90
8824;DHT22;4448;50.904;4.694;2023-04-03T04:07:51;5.50;99.90
8824;DHT22;4448;50.904;4.694;2023-04-03T04:10:17;5.50;99.90
8824;DHT22;4448;50.904;4.694;2023-04-03T04:12:43;5.40;99.90
8824;DHT22;4448;50.904;4.694;2023-04-03T04:15:09;5.40;99.90
8824;DHT22;4448;50.904;4.694;2023-04-03T04:17:35;5.40;99.90
8824;DHT22;4448;50.904;4.694;2023-04-03T04:20:02;5.40;99.90
8824;DHT22;4448;50.904;4.694;2023-04-03T04:22:28;5.40;99.90
8824;DHT22;4448;50.904;4.694;2023-04-03T04:24:54;5.40;99.90
8824;DHT22;4448;50.904;4.694;2023-04-03T04:27:19;5.40;99.90
8824;DHT22;4448;50.904;4.694;2023-04-03T04:29:45;5.40;99.90
8824;DHT22;4448;50.904;4.694;2023-04-03T04:32:11;5.40;99.90
8824;DHT22;4448;50.904;4.694;2023-04-03T04:34:36;5.40;99.90
8824;DHT22;4448;50.904;4.694;2023-04-03T04:37:02;5.40;99.90
8824;DHT22;4448;50.904;4.694;2023-04-03T04:39:28;5.20;99.90
8824;DHT22;4448;50.904;4.694;2023-04-03T04:41:53;5.30;99.90
8824;DHT22;4448;50.904;4.694;2023-04-03T04:44:20;5.30;99.90
8824;DHT22;4448;50.904;4.694;2023-04-03T04:46:45;5.30;99.90
8824;DHT22;4448;50.904;4.694;2023-04-03T04:49:11;5.70;99.90
8824;DHT22;4448;50.904;4.694;2023-04-03T04:51:37;5.30;99.90
8824;DHT22;4448;50.904;4.694;2023-04-03T04:54:03;5.30;99.90
8824;DHT22;4448;50.904;4.694;2023-04-03T04:56:28;5.30;99.90
8824;DHT22;4448;50.904;4.694;2023-04-03T04:58:54;5.30;99.90
8824;DHT22;4448;50.904;4.694;2023-04-03T05:01:20;5.30;99.90
8824;DHT22;4448;50.904;4.694;2023-04-03T05:03:46;5.30;99.90
8824;DHT22;4448;50.904;4.694;2023-04-03T05:06:13;5.20;99.90
8824;DHT22;4448;50.904;4.694;2023-04-03T05:08:38;5.20;99.90
8824;DHT22;4448;50.904;4.694;2023-04-03T05:11:04;5.20;99.90
8824;DHT22;4448;50.904;4.694;2023-04-03T05:13:30;5.20;99.90
8824;DHT22;4448;50.904;4.694;2023-04-03T05:15:56;5.20;99.90
8824;DHT22;4448;50.904;4.694;2023-04-03T05:18:22;5.20;99.90
8824;DHT22;4448;50.904;4.694;2023-04-03T05:20:50;5.20;99.90
8824;DHT22;4448;50.904;4.694;2023-04-03T05:23:17;5.20;99.90
8824;DHT22;4448;50.904;4.694;2023-04-03T05:25:43;5.20;99.90
8824;DHT22;4448;50.904;4.694;2023-04-03T05:28:11;5.20;99.90
8824;DHT22;4448;50.904;4.694;2023-04-03T05:30:36;5.20;99.90
8824;DHT22;4448;50.904;4.694;2023-04-03T05:33:02;5.20;99.90
8824;DHT22;4448;50.904;4.694;2023-04-03T05:35:28;5.20;99.90
8824;DHT22;4448;50.904;4.694;2023-04-03T05:37:54;5.20;99.90
8824;DHT22;4448;50.904;4.694;2023-04-03T05:40:19;5.20;99.90
8824;DHT22;4448;50.904;4.694;2023-04-03T05:42:45;5.20;99.90
8824;DHT22;4448;50.904;4.694;2023-04-03T05:45:11;5.20;99.90
8824;DHT22;4448;50.904;4.694;2023-04-03T05:47:37;5.20;99.90
8824;DHT22;4448;50.904;4.694;2023-04-03T05:50:03;5.10;99.90
8824;DHT22;4448;50.904;4.694;2023-04-03T05:52:31;5.20;99.90
8824;DHT22;4448;50.904;4.694;2023-04-03T05:54:58;5.20;99.90
8824;DHT22;4448;50.904;4.694;2023-04-03T05:57:24;5.20;99.90
8824;DHT22;4448;50.904;4.694;2023-04-03T05:59:49;5.20;99.90
8824;DHT22;4448;50.904;4.694;2023-04-03T06:02:18;5.20;99.90
8824;DHT22;4448;50.904;4.694;2023-04-03T06:04:44;5.20;99.90
8824;DHT22;4448;50.904;4.694;2023-04-03T06:07:12;5.20;99.90
8824;DHT22;4448;50.904;4.694;2023-04-03T06:09:38;5.20;99.90
8824;DHT22;4448;50.904;4.694;2023-04-03T06:12:04;5.20;99.90
8824;DHT22;4448;50.904;4.694;2023-04-03T06:14:30;5.20;99.90
8824;DHT22;4448;50.904;4.694;2023-04-03T06:16:56;5.20;99.90
8824;DHT22;4448;50.904;4.694;2023-04-03T06:19:21;5.20;99.90
8824;DHT22;4448;50.904;4.694;2023-04-03T06:21:47;5.30;99.90
8824;DHT22;4448;50.904;4.694;2023-04-03T06:24:15;5.20;99.90
8824;DHT22;4448;50.904;4.694;2023-04-03T06:26:41;5.20;99.90
8824;DHT22;4448;50.904;4.694;2023-04-03T06:29:08;5.30;99.90
8824;DHT22;4448;50.904;4.694;2023-04-03T06:31:33;5.30;99.90
8824;DHT22;4448;50.904;4.694;2023-04-03T06:33:59;5.30;99.90
8824;DHT22;4448;50.904;4.694;2023-04-03T06:36:25;5.30;99.90
8824;DHT22;4448;50.904;4.694;2023-04-03T06:38:51;5.30;99.90
8824;DHT22;4448;50.904;4.694;2023-04-03T06:41:17;5.30;99.90
8824;DHT22;4448;50.904;4.694;2023-04-03T06:43:46;5.30;99.90
8824;DHT22;4448;50.904;4.694;2023-04-03T06:46:16;5.30;99.90
8824;DHT22;4448;50.904;4.694;2023-04-03T06:48:42;5.40;99.90
8824;DHT22;4448;50.904;4.694;2023-04-03T06:51:29;5.40;99.90
8824;DHT22;4448;50.904;4.694;2023-04-03T06:53:57;5.40;99.90
8824;DHT22;4448;50.904;4.694;2023-04-03T06:56:23;5.40;99.90
8824;DHT22;4448;50.904;4.694;2023-04-03T06:58:50;5.50;99.90
8824;DHT22;4448;50.904;4.694;2023-04-03T07:01:17;5.50;99.90
8824;DHT22;4448;50.904;4.694;2023-04-03T07:03:47;5.50;99.90
8824;DHT22;4448;50.904;4.694;2023-04-03T07:06:14;5.50;99.90
8824;DHT22;4448;50.904;4.694;2023-04-03T07:08:41;5.50;99.90
8824;DHT22;4448;50.904;4.694;2023-04-03T07:11:08;5.50;99.90
8824;DHT22;4448;50.904;4.694;2023-04-03T07:13:34;5.50;99.90
8824;DHT22;4448;50.904;4.694;2023-04-03T07:16:00;5.50;99.90
8824;DHT22;4448;50.904;4.694;2023-04-03T07:18:26;5.50;99.90
8824;DHT22;4448;50.904;4.694;2023-04-03T07:20:52;5.50;99.90
8824;DHT22;4448;50.904;4.694;2023-04-03T07:23:18;5.50;99.90
8824;DHT22;4448;50.904;4.694;2023-04-03T07:25:45;5.50;99.90
8824;DHT22;4448;50.904;4.694;2023-04-03T07:28:11;5.50;99.90
8824;DHT22;4448;50.904;4.694;2023-04-03T07:30:48;5.60;99.90
8824;DHT22;4448;50.904;4.694;2023-04-03T07:33:15;5.60;99.90
8824;DHT22;4448;50.904;4.694;2023-04-03T07:35:41;5.60;99.90
8824;DHT22;4448;50.904;4.694;2023-04-03T07:38:08;5.60;99.90
8824;DHT22;4448;50.904;4.694;2023-04-03T07:40:33;5.70;99.90
8824;DHT22;4448;50.904;4.694;2023-04-03T07:43:00;5.70;99.90
8824;DHT22;4448;50.904;4.694;2023-04-03T07:45:26;5.70;99.90
8824;DHT22;4448;50.904;4.694;2023-04-03T07:47:52;5.80;99.90
8824;DHT22;4448;50.904;4.694;2023-04-03T07:50:18;5.80;99.90
8824;DHT22;4448;50.904;4.694;2023-04-03T07:52:44;5.80;99.90
8824;DHT22;4448;50.904;4.694;2023-04-03T07:55:11;5.90;99.90
8824;DHT22;4448;50.904;4.694;2023-04-03T07:57:37;5.90;99.90
8824;DHT22;4448;50.904;4.694;2023-04-03T08:00:06;5.90;99.90
8824;DHT22;4448;50.904;4.694;2023-04-03T08:02:32;6.00;99.90
8824;DHT22;4448;50.904;4.694;2023-04-03T08:04:58;6.00;99.90
8824;DHT22;4448;50.904;4.694;2023-04-03T08:07:25;6.00;99.90
8824;DHT22;4448;50.904;4.694;2023-04-03T08:09:51;6.10;99.90
8824;DHT22;4448;50.904;4.694;2023-04-03T08:12:17;6.10;99.90
8824;DHT22;4448;50.904;4.694;2023-04-03T08:14:42;6.20;99.90
8824;DHT22;4448;50.904;4.694;2023-04-03T08:17:09;6.20;99.90
8824;DHT22;4448;50.904;4.694;2023-04-03T08:19:38;6.30;99.90
8824;DHT22;4448;50.904;4.694;2023-04-03T08:22:04;6.30;99.90
8824;DHT22;4448;50.904;4.694;2023-04-03T08:24:31;6.40;99.90
8824;DHT22;4448;50.904;4.694;2023-04-03T08:26:57;6.40;99.90
8824;DHT22;4448;50.904;4.694;2023-04-03T08:29:23;6.50;99.90
8824;DHT22;4448;50.904;4.694;2023-04-03T08:31:50;6.50;99.90
8824;DHT22;4448;50.904;4.694;2023-04-03T08:34:16;6.60;99.90
8824;DHT22;4448;50.904;4.694;2023-04-03T08:36:42;6.80;99.90
8824;DHT22;4448;50.904;4.694;2023-04-03T08:39:07;6.90;99.90
8824;DHT22;4448;50.904;4.694;2023-04-03T08:41:39;7.00;99.90
8824;DHT22;4448;50.904;4.694;2023-04-03T08:47:18;7.20;99.90
8824;DHT22;4448;50.904;4.694;2023-04-03T08:49:52;7.30;99.90
8824;DHT22;4448;50.904;4.694;2023-04-03T08:52:24;7.40;99.90
8824;DHT22;4448;50.904;4.694;2023-04-03T08:54:58;7.40;99.90
8824;DHT22;4448;50.904;4.694;2023-04-03T08:57:39;7.60;99.90
8824;DHT22;4448;50.904;4.694;2023-04-03T09:00:25;7.70;99.90
8824;DHT22;4448;50.904;4.694;2023-04-03T09:02:56;7.80;99.90
8824;DHT22;4448;50.904;4.694;2023-04-03T09:10:49;8.00;99.90
8824;DHT22;4448;50.904;4.694;2023-04-03T09:13:21;8.10;99.90
8824;DHT22;4448;50.904;4.694;2023-04-03T09:15:50;8.20;99.90
8824;DHT22;4448;50.904;4.694;2023-04-03T09:18:36;8.30;99.90
8824;DHT22;4448;50.904;4.694;2023-04-03T09:21:20;8.40;99.90
8824;DHT22;4448;50.904;4.694;2023-04-03T09:23:51;8.40;99.90
8824;DHT22;4448;50.904;4.694;2023-04-03T09:26:29;8.50;99.90
8824;DHT22;4448;50.904;4.694;2023-04-03T09:28:59;8.60;99.90
8824;DHT22;4448;50.904;4.694;2023-04-03T09:31:35;8.60;99.90
8824;DHT22;4448;50.904;4.694;2023-04-03T09:36:57;8.70;99.90
8824;DHT22;4448;50.904;4.694;2023-04-03T09:39:28;8.80;99.90
8824;DHT22;4448;50.904;4.694;2023-04-03T09:42:11;8.80;99.90
8824;DHT22;4448;50.904;4.694;2023-04-03T09:44:39;8.90;99.90
8824;DHT22;4448;50.904;4.694;2023-04-03T09:47:37;9.00;99.90
8824;DHT22;4448;50.904;4.694;2023-04-03T09:52:42;9.20;99.90
8824;DHT22;4448;50.904;4.694;2023-04-03T09:55:16;9.30;99.90
8824;DHT22;4448;50.904;4.694;2023-04-03T09:57:44;9.40;99.90
8824;DHT22;4448;50.904;4.694;2023-04-03T10:00:21;9.40;99.90
8824;DHT22;4448;50.904;4.694;2023-04-03T10:02:51;9.50;99.90
8824;DHT22;4448;50.904;4.694;2023-04-03T10:05:33;9.60;99.90
8824;DHT22;4448;50.904;4.694;2023-04-03T10:10:48;9.70;99.90
8824;DHT22;4448;50.904;4.694;2023-04-03T10:13:16;9.70;99.90
8824;DHT22;4448;50.904;4.694;2023-04-03T10:15:55;9.80;99.90
8824;DHT22;4448;50.904;4.694;2023-04-03T10:21:06;9.90;99.90
8824;DHT22;4448;50.904;4.694;2023-04-03T10:23:47;10.00;99.90
8824;DHT22;4448;50.904;4.694;2023-04-03T10:26:31;10.00;99.90
8824;DHT22;4448;50.904;4.694;2023-04-03T10:34:37;10.10;99.90
8824;DHT22;4448;50.904;4.694;2023-04-03T10:37:26;10.20;99.90
8824;DHT22;4448;50.904;4.694;2023-04-03T10:40:29;10.40;99.90
8824;DHT22;4448;50.904;4.694;2023-04-03T10:48:10;10.70;99.90
8824;DHT22;4448;50.904;4.694;2023-04-03T10:59:38;10.90;99.90
8824;DHT22;4448;50.904;4.694;2023-04-03T11:02:16;11.00;99.90
8824;DHT22;4448;50.904;4.694;2023-04-03T11:04:48;11.10;99.90
8824;DHT22;4448;50.904;4.694;2023-04-03T11:07:29;11.10;99.90
8824;DHT22;4448;50.904;4.694;2023-04-03T11:10:03;11.20;99.90
8824;DHT22;4448;50.904;4.694;2023-04-03T11:12:46;11.30;99.90
8824;DHT22;4448;50.904;4.694;2023-04-03T11:15:16;11.40;99.90
8824;DHT22;4448;50.904;4.694;2023-04-03T11:17:55;11.40;99.90
8824;DHT22;4448;50.904;4.694;2023-04-03T11:20:28;11.50;99.90
8824;DHT22;4448;50.904;4.694;2023-04-03T11:23:23;11.60;99.90
8824;DHT22;4448;50.904;4.694;2023-04-03T11:25:53;11.60;99.90
8824;DHT22;4448;50.904;4.694;2023-04-03T11:28:19;11.60;99.90
8824;DHT22;4448;50.904;4.694;2023-04-03T11:30:49;11.70;99.90
8824;DHT22;4448;50.904;4.694;2023-04-03T11:33:32;11.70;99.90
8824;DHT22;4448;50.904;4.694;2023-04-03T11:38:47;11.90;99.90
8824;DHT22;4448;50.904;4.694;2023-04-03T11:41:14;11.80;99.90
8824;DHT22;4448;50.904;4.694;2023-04-03T11:43:55;11.90;99.90
8824;DHT22;4448;50.904;4.694;2023-04-03T11:46:22;11.90;99.90
8824;DHT22;4448;50.904;4.694;2023-04-03T11:48:49;12.00;99.90
8824;DHT22;4448;50.904;4.694;2023-04-03T11:53:46;12.20;99.90
8824;DHT22;4448;50.904;4.694;2023-04-03T12:01:57;12.50;99.90
8824;DHT22;4448;50.904;4.694;2023-04-03T12:04:26;12.60;99.90
8824;DHT22;4448;50.904;4.694;2023-04-03T12:07:00;12.80;99.90
8824;DHT22;4448;50.904;4.694;2023-04-03T12:09:29;12.80;99.90
8824;DHT22;4448;50.904;4.694;2023-04-03T12:12:00;12.90;99.90
8824;DHT22;4448;50.904;4.694;2023-04-03T12:14:28;13.00;99.90
8824;DHT22;4448;50.904;4.694;2023-04-03T12:16:54;13.00;99.90
8824;DHT22;4448;50.904;4.694;2023-04-03T12:19:34;13.00;99.90
8824;DHT22;4448;50.904;4.694;2023-04-03T12:24:38;13.10;99.90
8824;DHT22;4448;50.904;4.694;2023-04-03T12:27:29;13.20;99.90
8824;DHT22;4448;50.904;4.694;2023-04-03T12:35:36;13.40;99.90
8824;DHT22;4448;50.904;4.694;2023-04-03T12:41:18;13.60;99.90
8824;DHT22;4448;50.904;4.694;2023-04-03T12:46:47;13.60;99.90
8824;DHT22;4448;50.904;4.694;2023-04-03T12:49:30;13.70;99.90
8824;DHT22;4448;50.904;4.694;2023-04-03T12:51:58;13.70;99.90
8824;DHT22;4448;50.904;4.694;2023-04-03T12:54:30;13.70;99.90
8824;DHT22;4448;50.904;4.694;2023-04-03T12:57:16;13.70;99.90
8824;DHT22;4448;50.904;4.694;2023-04-03T12:59:43;13.70;99.90
8824;DHT22;4448;50.904;4.694;2023-04-03T13:02:21;13.70;99.90
8824;DHT22;4448;50.904;4.694;2023-04-03T13:04:49;13.60;99.90
8824;DHT22;4448;50.904;4.694;2023-04-03T13:07:23;13.60;99.90
8824;DHT22;4448;50.904;4.694;2023-04-03T13:10:20;13.60;99.90
8824;DHT22;4448;50.904;4.694;2023-04-03T13:15:30;13.50;99.90
8824;DHT22;4448;50.904;4.694;2023-04-03T13:18:05;13.50;99.90
8824;DHT22;4448;50.904;4.694;2023-04-03T13:20:34;13.50;99.90
8824;DHT22;4448;50.904;4.694;2023-04-03T13:23:04;13.60;99.90
8824;DHT22;4448;50.904;4.694;2023-04-03T13:25:33;13.60;99.90
8824;DHT22;4448;50.904;4.694;2023-04-03T13:28:02;13.60;99.90
8824;DHT22;4448;50.904;4.694;2023-04-03T13:30:37;13.60;99.90
8824;DHT22;4448;50.904;4.694;2023-04-03T13:33:17;13.50;99.90
8824;DHT22;4448;50.904;4.694;2023-04-03T13:35:44;13.50;99.90
8824;DHT22;4448;50.904;4.694;2023-04-03T13:40:53;13.40;99.90
8824;DHT22;4448;50.904;4.694;2023-04-03T13:43:25;13.40;99.90
8824;DHT22;4448;50.904;4.694;2023-04-03T13:46:01;13.40;99.90
8824;DHT22;4448;50.904;4.694;2023-04-03T13:51:27;13.30;99.90
8824;DHT22;4448;50.904;4.694;2023-04-03T13:53:57;13.20;99.90
8824;DHT22;4448;50.904;4.694;2023-04-03T13:59:05;13.20;99.90
8824;DHT22;4448;50.904;4.694;2023-04-03T14:01:52;13.20;99.90
8824;DHT22;4448;50.904;4.694;2023-04-03T14:04:27;13.20;99.90
8824;DHT22;4448;50.904;4.694;2023-04-03T14:06:54;13.10;99.90
8824;DHT22;4448;50.904;4.694;2023-04-03T14:09:21;13.10;99.90
8824;DHT22;4448;50.904;4.694;2023-04-03T14:11:49;13.10;99.90
8824;DHT22;4448;50.904;4.694;2023-04-03T14:14:31;13.10;99.90
8824;DHT22;4448;50.904;4.694;2023-04-03T14:16:58;13.00;99.90
8824;DHT22;4448;50.904;4.694;2023-04-03T14:19:28;13.00;99.90
8824;DHT22;4448;50.904;4.694;2023-04-03T14:21:55;13.00;99.90
8824;DHT22;4448;50.904;4.694;2023-04-03T14:24:21;13.00;99.90
8824;DHT22;4448;50.904;4.694;2023-04-03T14:26:48;12.90;99.90
8824;DHT22;4448;50.904;4.694;2023-04-03T14:29:13;12.90;99.90
8824;DHT22;4448;50.904;4.694;2023-04-03T14:31:42;12.90;99.90
8824;DHT22;4448;50.904;4.694;2023-04-03T14:34:10;12.90;99.90
8824;DHT22;4448;50.904;4.694;2023-04-03T14:36:37;12.90;99.90
8824;DHT22;4448;50.904;4.694;2023-04-03T14:39:05;12.80;99.90
8824;DHT22;4448;50.904;4.694;2023-04-03T14:41:32;12.80;99.90
8824;DHT22;4448;50.904;4.694;2023-04-03T14:43:57;12.70;99.90
8824;DHT22;4448;50.904;4.694;2023-04-03T14:46:32;12.70;99.90
8824;DHT22;4448;50.904;4.694;2023-04-03T14:48:59;12.60;99.90
8824;DHT22;4448;50.904;4.694;2023-04-03T14:51:25;12.60;99.90
8824;DHT22;4448;50.904;4.694;2023-04-03T14:53:52;12.60;99.90
8824;DHT22;4448;50.904;4.694;2023-04-03T14:56:28;12.50;99.90
8824;DHT22;4448;50.904;4.694;2023-04-03T14:58:59;12.50;99.90
8824;DHT22;4448;50.904;4.694;2023-04-03T15:01:27;12.40;99.90
8824;DHT22;4448;50.904;4.694;2023-04-03T15:03:53;12.40;99.90
8824;DHT22;4448;50.904;4.694;2023-04-03T15:06:19;12.30;99.90
8824;DHT22;4448;50.904;4.694;2023-04-03T15:08:46;12.30;99.90
8824;DHT22;4448;50.904;4.694;2023-04-03T15:11:13;12.30;99.90
8824;DHT22;4448;50.904;4.694;2023-04-03T15:13:39;12.20;99.90
8824;DHT22;4448;50.904;4.694;2023-04-03T15:16:26;12.20;99.90
8824;DHT22;4448;50.904;4.694;2023-04-03T15:18:52;12.20;99.90
8824;DHT22;4448;50.904;4.694;2023-04-03T15:21:18;12.10;99.90
8824;DHT22;4448;50.904;4.694;2023-04-03T15:23:43;12.10;99.90
8824;DHT22;4448;50.904;4.694;2023-04-03T15:26:09;12.00;99.90
8824;DHT22;4448;50.904;4.694;2023-04-03T15:28:37;12.00;99.90
8824;DHT22;4448;50.904;4.694;2023-04-03T15:31:04;12.00;99.90
8824;DHT22;4448;50.904;4.694;2023-04-03T15:33:31;12.00;99.90
8824;DHT22;4448;50.904;4.694;2023-04-03T15:35:57;11.90;99.90
8824;DHT22;4448;50.904;4.694;2023-04-03T15:38:23;12.00;99.90
8824;DHT22;4448;50.904;4.694;2023-04-03T15:40:48;12.00;99.90
8824;DHT22;4448;50.904;4.694;2023-04-03T15:43:15;11.90;99.90
8824;DHT22;4448;50.904;4.694;2023-04-03T15:45:42;11.90;99.90
8824;DHT22;4448;50.904;4.694;2023-04-03T15:48:08;11.80;99.90
8824;DHT22;4448;50.904;4.694;2023-04-03T15:50:35;11.80;99.90
8824;DHT22;4448;50.904;4.694;2023-04-03T15:53:01;11.80;99.90
8824;DHT22;4448;50.904;4.694;2023-04-03T15:55:29;11.70;99.90
8824;DHT22;4448;50.904;4.694;2023-04-03T15:57:55;11.70;99.90
8824;DHT22;4448;50.904;4.694;2023-04-03T16:00:21;11.60;99.90
8824;DHT22;4448;50.904;4.694;2023-04-03T16:02:49;11.60;99.90
8824;DHT22;4448;50.904;4.694;2023-04-03T16:05:16;11.60;99.90
8824;DHT22;4448;50.904;4.694;2023-04-03T16:07:43;11.60;99.90
8824;DHT22;4448;50.904;4.694;2023-04-03T16:10:10;11.60;99.90
8824;DHT22;4448;50.904;4.694;2023-04-03T16:12:36;11.60;99.90
8824;DHT22;4448;50.904;4.694;2023-04-03T16:15:03;11.50;99.90
8824;DHT22;4448;50.904;4.694;2023-04-03T16:17:29;11.50;99.90
8824;DHT22;4448;50.904;4.694;2023-04-03T16:19:56;11.40;99.90
8824;DHT22;4448;50.904;4.694;2023-04-03T16:22:26;11.20;99.90
8824;DHT22;4448;50.904;4.694;2023-04-03T16:24:53;11.30;99.90
8824;DHT22;4448;50.904;4.694;2023-04-03T16:27:19;11.30;99.90
8824;DHT22;4448;50.904;4.694;2023-04-03T16:29:45;11.30;99.90
8824;DHT22;4448;50.904;4.694;2023-04-03T16:32:11;11.30;99.90
8824;DHT22;4448;50.904;4.694;2023-04-03T16:34:37;11.20;99.90
8824;DHT22;4448;50.904;4.694;2023-04-03T16:37:03;11.20;99.90
8824;DHT22;4448;50.904;4.694;2023-04-03T16:39:29;11.20;99.90
8824;DHT22;4448;50.904;4.694;2023-04-03T16:41:55;11.20;99.90
8824;DHT22;4448;50.904;4.694;2023-04-03T16:44:21;11.20;99.90
8824;DHT22;4448;50.904;4.694;2023-04-03T16:46:46;11.20;99.90
8824;DHT22;4448;50.904;4.694;2023-04-03T16:49:12;11.10;99.90
8824;DHT22;4448;50.904;4.694;2023-04-03T16:51:37;11.10;99.90
8824;DHT22;4448;50.904;4.694;2023-04-03T16:54:03;11.10;99.90
8824;DHT22;4448;50.904;4.694;2023-04-03T16:56:29;11.10;99.90
8824;DHT22;4448;50.904;4.694;2023-04-03T16:58:55;11.00;99.90
8824;DHT22;4448;50.904;4.694;2023-04-03T17:01:21;10.90;99.90
8824;DHT22;4448;50.904;4.694;2023-04-03T17:03:47;10.90;99.90
8824;DHT22;4448;50.904;4.694;2023-04-03T17:06:18;10.90;99.90
8824;DHT22;4448;50.904;4.694;2023-04-03T17:08:46;10.80;99.90
8824;DHT22;4448;50.904;4.694;2023-04-03T17:11:12;10.80;99.90
8824;DHT22;4448;50.904;4.694;2023-04-03T17:13:38;10.70;99.90
8824;DHT22;4448;50.904;4.694;2023-04-03T17:16:06;10.70;99.90
8824;DHT22;4448;50.904;4.694;2023-04-03T17:18:34;10.70;99.90
8824;DHT22;4448;50.904;4.694;2023-04-03T17:21:01;10.60;99.90
8824;DHT22;4448;50.904;4.694;2023-04-03T17:23:27;10.60;99.90
8824;DHT22;4448;50.904;4.694;2023-04-03T17:25:57;10.50;99.90
8824;DHT22;4448;50.904;4.694;2023-04-03T17:28:23;10.50;99.90
8824;DHT22;4448;50.904;4.694;2023-04-03T17:31:00;10.50;99.90
8824;DHT22;4448;50.904;4.694;2023-04-03T17:33:28;10.40;99.90
8824;DHT22;4448;50.904;4.694;2023-04-03T17:36:00;10.40;99.90